Time;durP1;ratioP1;P1;durP2;ratioP2;P2;SDS_P1;SDS_P2;PMS_P1;PMS_P2;Temp;Humidity;BMP_temperature;BMP_pressure;BME280_temperature;BME280_humidity;BME280_pressure;Samples;Min_cycle;Max_cycle;Signal;HPM_P1;HPM_P2
2023/03/07 00:01:00;;;;;;;4.22;1.00;;;;;;;4.01;95.27;98777.38;4933079;29;20047;-48
2023/03/07 00:03:25;;;;;;;0.70;0.70;;;;;;;3.97;96.44;98771.25;4932878;29;20058;-53
2023/03/07 00:06:06;;;;;;;0.55;0.50;;;;;;;4.20;95.79;98758.66;4920088;29;20087;-51
2023/03/07 00:08:32;;;;;;;0.70;0.70;;;;;;;3.91;96.60;98756.72;4921361;29;20038;-50
2023/03/07 00:11:05;;;;;;;0.90;0.82;;;;;;;3.96;96.74;98753.72;4932187;29;20549;-48
2023/03/07 00:13:32;;;;;;;1.88;0.70;;;;;;;4.03;96.47;98740.50;4926575;29;20035;-49
2023/03/07 00:16:06;;;;;;;0.70;0.70;;;;;;;4.05;96.51;98746.25;4928317;29;20533;-48
2023/03/07 00:18:32;;;;;;;0.40;0.40;;;;;;;4.13;96.76;98732.69;4931936;29;20036;-51
2023/03/07 00:21:05;;;;;;;1.02;0.50;;;;;;;4.19;97.63;98727.81;4932201;29;20138;-48
2023/03/07 00:23:31;;;;;;;3.92;0.95;;;;;;;4.40;96.47;98730.75;4930869;29;20110;-48
2023/03/07 00:26:06;;;;;;;4.03;0.98;;;;;;;4.11;98.17;98716.31;4931705;29;20043;-48
2023/03/07 00:28:32;;;;;;;0.55;0.55;;;;;;;4.06;98.18;98705.19;4914054;29;20070;-48
2023/03/07 00:31:09;;;;;;;0.68;0.65;;;;;;;4.03;98.18;98708.56;4932258;29;20067;-49
2023/03/07 00:33:35;;;;;;;0.40;0.40;;;;;;;4.12;98.61;98703.78;4911845;29;20039;-49
2023/03/07 00:36:04;;;;;;;0.70;0.70;;;;;;;4.23;98.31;98704.66;4901778;29;20147;-49
2023/03/07 00:38:31;;;;;;;2.45;1.38;;;;;;;3.91;99.59;98696.22;4930743;29;20402;-48
2023/03/07 00:41:08;;;;;;;0.55;0.55;;;;;;;3.84;99.27;98682.06;4932380;29;20047;-49
2023/03/07 00:43:36;;;;;;;0.90;0.90;;;;;;;3.75;100.00;98679.66;4932046;29;20019;-49
2023/03/07 00:46:02;;;;;;;0.55;0.40;;;;;;;4.10;100.00;98666.06;4931793;29;20035;-48
2023/03/07 00:48:28;;;;;;;0.80;0.80;;;;;;;4.47;98.19;98656.28;4922944;29;20032;-48
2023/03/07 00:50:54;;;;;;;0.60;0.60;;;;;;;4.53;97.63;98660.13;4936732;29;20032;-51
2023/03/07 00:53:23;;;;;;;0.70;0.70;;;;;;;4.52;97.22;98639.94;4921492;29;20634;-51
2023/03/07 00:56:20;;;;;;;2.03;0.93;;;;;;;4.33;98.06;98640.88;4929083;29;20047;-52
2023/03/07 00:58:46;;;;;;;1.40;0.90;;;;;;;4.27;98.54;98633.56;4925542;29;20040;-50
2023/03/07 01:01:33;;;;;;;0.70;0.70;;;;;;;4.48;97.27;98626.59;4930761;29;20577;-55
2023/03/07 01:03:58;;;;;;;4.13;1.55;;;;;;;4.28;98.22;98629.75;4839297;29;20046;-48
2023/03/07 01:06:27;;;;;;;0.40;0.40;;;;;;;4.29;98.77;98628.66;4849895;29;20412;-52
2023/03/07 01:08:56;;;;;;;1.63;1.52;;;;;;;4.48;98.12;98615.16;4852428;29;20080;-49
2023/03/07 01:11:22;;;;;;;0.52;0.52;;;;;;;4.38;98.12;98605.94;4854010;29;20037;-49
2023/03/07 01:13:48;;;;;;;0.50;0.50;;;;;;;4.14;99.71;98602.97;4855079;29;20029;-46
2023/03/07 01:16:20;;;;;;;0.82;0.82;;;;;;;4.34;99.55;98597.13;4849519;29;20042;-50
2023/03/07 01:18:50;;;;;;;0.30;0.30;;;;;;;4.59;98.14;98597.38;4855817;29;20033;-50
2023/03/07 01:21:22;;;;;;;1.17;0.80;;;;;;;4.73;97.35;98591.41;4841827;29;20045;-49
2023/03/07 01:23:49;;;;;;;1.17;0.98;;;;;;;4.78;96.69;98583.84;4839794;29;20129;-49
2023/03/07 01:26:17;;;;;;;1.48;0.80;;;;;;;4.62;96.92;98580.69;4857505;29;20120;-49
2023/03/07 01:28:43;;;;;;;0.77;0.77;;;;;;;4.38;98.81;98570.53;4842094;29;20045;-48
2023/03/07 01:31:09;;;;;;;2.20;1.05;;;;;;;4.69;97.95;98567.41;4842669;29;20033;-51
2023/03/07 01:33:36;;;;;;;0.60;0.60;;;;;;;4.60;97.14;98558.94;4841336;29;20628;-49
2023/03/07 01:36:02;;;;;;;1.27;1.15;;;;;;;4.59;97.25;98557.41;4841708;29;20045;-53
2023/03/07 01:38:32;;;;;;;0.90;0.90;;;;;;;4.78;97.03;98549.19;4841814;29;20038;-49
2023/03/07 01:41:00;;;;;;;1.00;1.00;;;;;;;4.70;96.60;98546.84;4870123;29;20076;-50
2023/03/07 01:43:28;;;;;;;0.80;0.60;;;;;;;4.52;97.03;98544.03;4908076;29;20036;-50
2023/03/07 01:46:15;;;;;;;1.02;0.57;;;;;;;4.54;98.33;98539.09;4938009;29;20102;-52
2023/03/07 01:48:49;;;;;;;0.73;0.73;;;;;;;4.61;98.60;98533.81;4930867;29;20028;-51
2023/03/07 01:51:15;;;;;;;0.95;0.80;;;;;;;4.51;98.06;98531.81;4933338;29;20059;-51
2023/03/07 01:53:42;;;;;;;0.90;0.85;;;;;;;4.50;98.07;98520.41;4912527;29;20024;-49
2023/03/07 01:56:10;;;;;;;1.05;0.95;;;;;;;4.61;98.67;98522.41;4914364;29;20027;-51
2023/03/07 01:58:38;;;;;;;1.55;0.75;;;;;;;4.65;98.26;98517.84;4934896;29;20403;-51
2023/03/07 02:01:08;;;;;;;0.52;0.52;;;;;;;4.56;98.39;98520.84;4929772;29;20027;-49
2023/03/07 02:03:42;;;;;;;0.52;0.52;;;;;;;4.45;98.99;98509.34;4933948;29;20027;-51
2023/03/07 02:06:11;;;;;;;1.13;1.13;;;;;;;4.31;98.09;98503.84;4927335;29;20036;-48
2023/03/07 02:08:39;;;;;;;0.40;0.40;;;;;;;4.51;98.15;98499.84;4916302;29;20179;-50
2023/03/07 02:11:05;;;;;;;0.57;0.57;;;;;;;4.65;97.67;98496.53;4932963;29;20028;-53
2023/03/07 02:13:31;;;;;;;1.58;0.98;;;;;;;4.58;97.12;98486.59;4932362;29;20078;-45
2023/03/07 02:16:00;;;;;;;0.65;0.65;;;;;;;4.68;97.13;98490.47;4911917;29;20032;-49
2023/03/07 02:18:49;;;;;;;2.22;0.85;;;;;;;4.69;96.65;98478.69;4930672;29;20034;-54
2023/03/07 02:21:15;;;;;;;1.15;1.05;;;;;;;4.54;97.24;98475.91;4848060;29;20069;-48
2023/03/07 02:23:54;;;;;;;0.65;0.65;;;;;;;4.41;97.82;98484.56;4847386;29;20256;-49
2023/03/07 02:26:29;;;;;;;0.60;0.60;;;;;;;4.54;97.69;98481.25;4856110;29;20152;-49
2023/03/07 02:28:58;;;;;;;0.65;0.65;;;;;;;4.46;98.20;98468.22;4863792;29;20492;-51
2023/03/07 02:31:25;;;;;;;0.80;0.80;;;;;;;4.60;97.93;98455.03;4865215;29;20038;-49
2023/03/07 02:33:50;;;;;;;0.40;0.40;;;;;;;4.65;97.16;98460.00;4857931;29;20501;-52
2023/03/07 02:36:29;;;;;;;0.93;0.88;;;;;;;4.73;97.36;98450.94;4862122;29;20483;-50
2023/03/07 02:39:05;;;;;;;0.70;0.70;;;;;;;4.70;97.34;98446.34;4845420;29;20072;-50
2023/03/07 02:41:33;;;;;;;0.52;0.52;;;;;;;4.64;96.72;98447.81;4845244;29;20038;-53
2023/03/07 02:44:02;;;;;;;0.57;0.57;;;;;;;4.51;97.69;98443.88;4865325;29;20744;-48
2023/03/07 02:46:28;;;;;;;0.85;0.80;;;;;;;4.61;97.62;98437.13;4844490;29;20045;-52
2023/03/07 02:48:53;;;;;;;0.50;0.50;;;;;;;4.71;97.29;98442.53;4859814;29;20044;-49
2023/03/07 02:51:19;;;;;;;0.50;0.50;;;;;;;4.68;97.43;98447.84;4859292;29;20590;-50
2023/03/07 02:53:46;;;;;;;0.40;0.40;;;;;;;4.80;96.71;98428.91;4853959;29;20124;-51
2023/03/07 02:56:11;;;;;;;0.85;0.85;;;;;;;4.66;97.16;98432.22;4863224;29;20173;-49
2023/03/07 02:58:37;;;;;;;0.95;0.95;;;;;;;4.77;97.13;98434.94;4889907;29;20078;-52
2023/03/07 03:01:03;;;;;;;0.50;0.50;;;;;;;4.68;96.59;98427.28;4933544;29;20035;-48
2023/03/07 03:03:29;;;;;;;1.02;0.98;;;;;;;4.66;97.45;98424.22;4929418;29;20403;-51
2023/03/07 03:05:54;;;;;;;0.50;0.50;;;;;;;4.82;96.38;98419.38;4932271;29;20047;-48
2023/03/07 03:08:20;;;;;;;2.05;0.82;;;;;;;4.48;97.36;98410.00;4932303;29;20050;-48
2023/03/07 03:10:50;;;;;;;0.82;0.73;;;;;;;4.56;97.33;98415.03;4924408;29;20036;-50
2023/03/07 03:13:16;;;;;;;0.77;0.77;;;;;;;4.68;97.58;98410.53;4928694;29;20369;-49
2023/03/07 03:15:41;;;;;;;1.23;0.93;;;;;;;4.74;97.25;98406.38;4931155;29;20055;-47
2023/03/07 03:18:07;;;;;;;0.90;0.90;;;;;;;4.65;97.40;98401.38;4932455;29;20043;-49
2023/03/07 03:20:32;;;;;;;1.35;0.55;;;;;;;4.73;97.13;98404.84;4929896;29;20068;-48
2023/03/07 03:22:58;;;;;;;0.40;0.40;;;;;;;4.76;97.33;98390.78;4916244;29;20042;-48
2023/03/07 03:25:25;;;;;;;1.38;1.27;;;;;;;4.75;97.41;98390.00;4931159;29;20050;-49
2023/03/07 03:27:51;;;;;;;0.50;0.50;;;;;;;4.72;97.49;98390.00;4931594;29;20078;-51
2023/03/07 03:30:17;;;;;;;0.45;0.45;;;;;;;4.70;97.45;98385.03;4923962;29;20055;-47
2023/03/07 03:32:43;;;;;;;0.80;0.80;;;;;;;4.80;97.89;98373.66;4915975;29;20065;-48
2023/03/07 03:35:11;;;;;;;3.70;1.05;;;;;;;4.84;97.75;98371.78;4927213;29;20027;-48
2023/03/07 03:37:38;;;;;;;0.57;0.57;;;;;;;4.85;97.91;98376.00;4932999;29;20083;-49
2023/03/07 03:40:12;;;;;;;0.45;0.45;;;;;;;4.95;97.17;98372.63;4932113;29;20028;-49
2023/03/07 03:42:40;;;;;;;1.70;0.50;;;;;;;4.95;96.76;98358.50;4930835;29;20024;-49
2023/03/07 03:45:08;;;;;;;2.40;1.02;;;;;;;4.96;96.70;98368.03;4930105;29;20031;-49
2023/03/07 03:47:33;;;;;;;0.63;0.63;;;;;;;5.00;96.74;98361.59;4927626;29;20367;-49
2023/03/07 03:49:59;;;;;;;0.30;0.30;;;;;;;4.97;97.57;98354.34;4915219;29;20249;-48
2023/03/07 03:52:24;;;;;;;0.45;0.45;;;;;;;4.85;97.45;98359.22;4926415;29;20044;-51
2023/03/07 03:54:50;;;;;;;0.35;0.35;;;;;;;4.99;97.46;98360.06;4930715;29;20040;-48
2023/03/07 03:57:19;;;;;;;0.47;0.47;;;;;;;5.11;96.72;98359.72;4931575;29;20521;-52
2023/03/07 03:59:45;;;;;;;0.40;0.40;;;;;;;5.15;96.50;98365.09;4930208;29;20129;-52
2023/03/07 04:02:12;;;;;;;0.45;0.45;;;;;;;5.02;96.71;98367.31;4929626;29;20023;-49
2023/03/07 04:04:38;;;;;;;0.40;0.40;;;;;;;4.97;97.56;98354.34;4928690;29;20027;-50
2023/03/07 04:07:04;;;;;;;0.47;0.47;;;;;;;5.06;98.42;98354.75;4931919;29;20514;-49
2023/03/07 04:09:30;;;;;;;0.80;0.57;;;;;;;5.01;97.95;98346.34;4905701;29;20032;-49
2023/03/07 04:11:56;;;;;;;0.40;0.40;;;;;;;4.98;98.25;98339.09;4930724;29;20038;-48
2023/03/07 04:14:22;;;;;;;1.00;0.98;;;;;;;5.17;97.71;98331.56;4915751;29;20475;-48
2023/03/07 04:16:48;;;;;;;1.88;1.38;;;;;;;5.15;97.89;98333.84;4929868;29;20517;-50
2023/03/07 04:19:14;;;;;;;0.30;0.30;;;;;;;5.15;97.15;98333.84;4924876;29;20511;-49
2023/03/07 04:21:41;;;;;;;0.73;0.73;;;;;;;5.18;97.52;98338.44;4929788;29;20525;-48
2023/03/07 04:24:07;;;;;;;0.30;0.30;;;;;;;5.07;98.12;98331.53;4930986;29;20039;-49
2023/03/07 04:26:36;;;;;;;0.50;0.50;;;;;;;5.09;98.23;98343.31;4929837;29;20039;-48
2023/03/07 04:29:03;;;;;;;1.08;0.82;;;;;;;5.13;98.23;98332.69;4915307;29;20038;-50
2023/03/07 04:31:40;;;;;;;0.85;0.85;;;;;;;5.16;97.54;98327.38;4915015;29;20114;-51
2023/03/07 04:34:06;;;;;;;0.30;0.30;;;;;;;5.24;96.76;98323.59;4920957;29;20031;-49
2023/03/07 04:36:32;;;;;;;0.43;0.43;;;;;;;5.14;98.10;98323.53;4931570;29;20032;-49
2023/03/07 04:38:58;;;;;;;0.57;0.57;;;;;;;5.25;97.99;98314.44;4926475;29;20078;-50
2023/03/07 04:41:27;;;;;;;0.50;0.50;;;;;;;5.27;97.59;98312.16;4931314;29;20144;-48
2023/03/07 04:43:56;;;;;;;0.30;0.30;;;;;;;5.10;98.39;98291.53;4925228;29;20038;-50
2023/03/07 04:46:24;;;;;;;0.47;0.47;;;;;;;5.26;98.10;98312.53;4930625;29;20444;-51
2023/03/07 04:48:50;;;;;;;0.22;0.22;;;;;;;5.25;98.27;98298.44;4918511;29;20035;-48
2023/03/07 04:51:15;;;;;;;0.80;0.77;;;;;;;5.02;99.25;98292.66;4930435;29;20036;-48
2023/03/07 04:53:41;;;;;;;0.38;0.38;;;;;;;4.92;99.43;98293.38;4933785;29;20020;-49
2023/03/07 04:56:08;;;;;;;0.60;0.60;;;;;;;5.12;99.52;98294.59;4934180;29;20842;-49
2023/03/07 04:58:54;;;;;;;0.40;0.40;;;;;;;5.28;98.70;98291.59;4928110;29;20386;-53
2023/03/07 05:01:20;;;;;;;2.17;1.33;;;;;;;5.39;98.19;98290.47;4870103;29;20057;-50
2023/03/07 05:03:46;;;;;;;1.25;1.13;;;;;;;5.49;96.85;98279.06;4877189;29;20520;-49
2023/03/07 05:06:15;;;;;;;0.70;0.25;;;;;;;5.47;97.38;98269.88;4857355;29;20262;-48
2023/03/07 05:08:44;;;;;;;0.40;0.40;;;;;;;5.39;97.04;98285.13;4870253;29;20061;-50
2023/03/07 05:11:10;;;;;;;0.52;0.52;;;;;;;5.38;97.02;98282.84;4875161;29;20611;-50
2023/03/07 05:13:35;;;;;;;0.47;0.43;;;;;;;5.12;97.84;98289.25;4876862;29;20041;-49
2023/03/07 05:16:01;;;;;;;0.40;0.40;;;;;;;5.11;98.46;98271.72;4876083;29;20623;-52
2023/03/07 05:18:28;;;;;;;0.35;0.35;;;;;;;4.92;97.83;98258.69;4876018;29;20140;-48
2023/03/07 05:20:55;;;;;;;0.40;0.40;;;;;;;5.26;97.62;98265.28;4875499;29;20033;-48
2023/03/07 05:23:21;;;;;;;0.28;0.28;;;;;;;5.43;95.51;98264.56;4876309;29;20119;-49
2023/03/07 05:25:48;;;;;;;0.50;0.50;;;;;;;5.34;94.79;98264.13;4875874;29;20053;-50
2023/03/07 05:28:15;;;;;;;0.22;0.22;;;;;;;5.35;96.22;98257.69;4860716;29;20523;-47
2023/03/07 05:30:42;;;;;;;0.28;0.28;;;;;;;5.17;96.08;98264.88;4872709;29;20505;-49
2023/03/07 05:33:08;;;;;;;0.90;0.77;;;;;;;5.18;95.45;98261.06;4870751;29;20044;-52
2023/03/07 05:35:33;;;;;;;0.20;0.20;;;;;;;5.21;94.79;98252.31;4875763;29;20057;-51
2023/03/07 05:38:00;;;;;;;0.50;0.45;;;;;;;5.25;94.63;98247.75;4885224;29;20131;-51
2023/03/07 05:40:26;;;;;;;0.40;0.40;;;;;;;5.31;94.84;98256.13;4933715;29;20067;-53
2023/03/07 05:42:51;;;;;;;0.30;0.30;;;;;;;5.13;94.04;98258.75;4933240;29;20063;-50
2023/03/07 05:45:19;;;;;;;0.73;0.50;;;;;;;5.06;95.57;98264.09;4930695;29;20039;-50
2023/03/07 05:47:46;;;;;;;0.28;0.28;;;;;;;5.23;93.75;98249.25;4925495;29;20066;-50
2023/03/07 05:50:12;;;;;;;0.50;0.50;;;;;;;5.43;92.99;98248.53;4912263;29;20032;-50
2023/03/07 05:52:39;;;;;;;0.50;0.50;;;;;;;5.28;93.32;98259.56;4933068;29;20047;-51
2023/03/07 05:55:06;;;;;;;0.30;0.30;;;;;;;5.18;92.93;98250.41;4916597;29;20150;-49
2023/03/07 05:57:32;;;;;;;0.20;0.20;;;;;;;5.33;93.23;98245.84;4914044;29;20514;-49
2023/03/07 05:59:57;;;;;;;0.40;0.40;;;;;;;5.44;90.73;98241.28;4914916;29;20042;-52
2023/03/07 06:02:23;;;;;;;0.20;0.20;;;;;;;5.55;90.68;98238.63;4903174;29;20043;-50
2023/03/07 06:04:49;;;;;;;0.50;0.50;;;;;;;5.38;89.43;98224.16;4908306;29;20031;-53
2023/03/07 06:07:15;;;;;;;0.22;0.22;;;;;;;5.42;90.13;98232.88;4913454;29;20039;-48
2023/03/07 06:09:40;;;;;;;0.20;0.20;;;;;;;5.21;89.95;98227.53;4906159;29;20086;-51
2023/03/07 06:12:09;;;;;;;0.40;0.40;;;;;;;5.11;89.96;98236.28;4916326;29;20032;-53
2023/03/07 06:14:34;;;;;;;0.45;0.45;;;;;;;5.15;90.24;98231.72;4913971;29;20506;-49
2023/03/07 06:17:04;;;;;;;0.20;0.20;;;;;;;5.15;89.97;98227.13;4911159;29;20147;-51
2023/03/07 06:19:32;;;;;;;0.30;0.30;;;;;;;5.19;89.83;98217.25;4922358;29;20476;-49
2023/03/07 06:21:59;;;;;;;0.30;0.30;;;;;;;5.20;89.43;98210.00;4898942;29;20114;-47
2023/03/07 06:24:24;;;;;;;0.32;0.32;;;;;;;5.12;89.95;98216.47;4907259;28;20484;-48
2023/03/07 06:26:50;;;;;;;0.40;0.40;;;;;;;5.26;88.85;98201.28;4907702;29;20035;-51
2023/03/07 06:29:18;;;;;;;0.55;0.55;;;;;;;5.47;88.69;98221.84;4905694;29;20031;-50
2023/03/07 06:31:44;;;;;;;0.38;0.38;;;;;;;5.41;87.97;98215.38;4928404;28;20039;-49
2023/03/07 06:34:10;;;;;;;0.30;0.30;;;;;;;5.31;87.96;98208.09;4907569;29;20032;-54
2023/03/07 06:36:35;;;;;;;0.30;0.30;;;;;;;5.14;88.95;98209.63;4925482;29;20027;-50
2023/03/07 06:39:01;;;;;;;0.20;0.20;;;;;;;5.35;88.48;98220.31;4921750;29;20154;-50
2023/03/07 06:41:27;;;;;;;0.22;0.22;;;;;;;5.47;87.65;98216.53;4909571;29;20036;-49
2023/03/07 06:43:54;;;;;;;0.30;0.30;;;;;;;5.63;87.04;98235.59;4927250;28;20035;-51
2023/03/07 06:46:25;;;;;;;0.30;0.30;;;;;;;5.59;86.83;98231.41;4916754;29;20047;-50
2023/03/07 06:48:54;;;;;;;0.50;0.40;;;;;;;5.31;86.98;98232.13;4916390;29;20027;-51
2023/03/07 06:51:39;;;;;;;0.30;0.30;;;;;;;5.29;87.53;98221.06;4911292;29;20329;-48
2023/03/07 06:54:06;;;;;;;0.20;0.20;;;;;;;5.15;88.74;98243.16;4859552;29;20045;-50
2023/03/07 06:56:34;;;;;;;0.20;0.20;;;;;;;5.35;88.02;98231.00;4856321;29;20049;-48
2023/03/07 06:58:59;;;;;;;0.20;0.20;;;;;;;5.31;87.98;98240.13;4857069;29;20796;-50
2023/03/07 07:01:25;;;;;;;0.30;0.30;;;;;;;5.52;87.82;98234.06;4858651;29;20038;-47
2023/03/07 07:03:53;;;;;;;0.20;0.20;;;;;;;5.42;87.34;98231.00;4858868;29;20544;-48
2023/03/07 07:06:18;;;;;;;0.30;0.30;;;;;;;5.52;86.43;98248.16;4872973;29;20041;-48
2023/03/07 07:08:43;;;;;;;0.20;0.20;;;;;;;5.50;86.22;98255.78;4844981;29;20021;-49
2023/03/07 07:11:09;;;;;;;0.30;0.30;;;;;;;5.74;85.87;98246.25;4871211;29;20049;-48
2023/03/07 07:13:36;;;;;;;0.20;0.20;;;;;;;5.75;85.11;98237.13;4852993;29;20062;-48
2023/03/07 07:16:06;;;;;;;0.30;0.30;;;;;;;5.70;84.86;98245.50;4842464;29;20056;-50
2023/03/07 07:18:34;;;;;;;0.30;0.30;;;;;;;5.83;84.85;98251.97;4853014;29;20568;-49
2023/03/07 07:20:59;;;;;;;0.30;0.30;;;;;;;5.57;84.84;98247.78;4854778;29;20177;-49
2023/03/07 07:23:25;;;;;;;0.20;0.20;;;;;;;5.59;85.20;98252.75;4855716;29;20524;-54
2023/03/07 07:25:52;;;;;;;0.20;0.20;;;;;;;5.37;86.63;98249.28;4841001;29;20035;-48
2023/03/07 07:28:17;;;;;;;0.20;0.20;;;;;;;5.48;86.13;98245.50;4844445;29;20037;-52
2023/03/07 07:30:43;;;;;;;0.30;0.30;;;;;;;5.80;84.12;98242.06;4876138;29;20131;-49
2023/03/07 07:33:11;;;;;;;0.20;0.20;;;;;;;5.53;85.26;98262.25;4921416;29;20507;-51
2023/03/07 07:35:38;;;;;;;0.20;0.20;;;;;;;5.85;84.00;98255.81;4922893;29;20093;-49
2023/03/07 07:38:03;;;;;;;0.20;0.20;;;;;;;5.76;84.89;98250.09;4913143;29;20032;-50
2023/03/07 07:40:29;;;;;;;0.40;0.40;;;;;;;5.76;84.24;98257.31;4917145;29;20039;-51
2023/03/07 07:42:55;;;;;;;0.20;0.20;;;;;;;5.87;84.15;98256.19;4925389;29;20032;-51
2023/03/07 07:45:30;;;;;;;0.63;0.47;;;;;;;5.78;84.28;98263.03;4932198;29;20035;-51
2023/03/07 07:47:56;;;;;;;0.30;0.30;;;;;;;5.96;84.60;98277.94;4907273;29;20100;-49
2023/03/07 07:50:22;;;;;;;0.20;0.20;;;;;;;6.09;83.47;98270.31;4924041;29;20036;-50
2023/03/07 07:52:48;;;;;;;0.20;0.20;;;;;;;5.80;83.74;98266.88;4922657;29;20031;-50
2023/03/07 07:55:14;;;;;;;0.30;0.30;;;;;;;5.89;84.67;98274.50;4936716;28;20030;-54
2023/03/07 07:57:41;;;;;;;0.20;0.20;;;;;;;5.90;84.14;98260.03;4930411;29;20079;-48
2023/03/07 08:00:10;;;;;;;0.35;0.35;;;;;;;6.06;83.13;98263.03;4927448;29;20475;-49
2023/03/07 08:02:57;;;;;;;0.30;0.30;;;;;;;6.09;82.87;98276.41;4932454;29;20031;-50
2023/03/07 08:05:23;;;;;;;0.30;0.30;;;;;;;6.22;82.62;98271.44;4892177;29;20638;-49
2023/03/07 08:07:49;;;;;;;0.32;0.30;;;;;;;6.29;82.67;98271.44;4890778;29;20045;-50
2023/03/07 08:10:15;;;;;;;0.20;0.20;;;;;;;6.52;81.03;98266.41;4887434;29;20063;-49
2023/03/07 08:12:46;;;;;;;0.20;0.20;;;;;;;6.55;80.91;98281.66;4886171;29;20047;-50
2023/03/07 08:15:15;;;;;;;;;;;;;;;6.26;82.98;98277.53;4900076;29;20440;-52
2023/03/07 08:17:41;;;;;;;0.20;0.20;;;;;;;6.27;82.61;98273.72;4895916;29;19960;-49
2023/03/07 08:20:08;;;;;;;0.20;0.20;;;;;;;6.61;81.24;98282.81;4891756;29;20040;-49
2023/03/07 08:22:37;;;;;;;0.20;0.20;;;;;;;6.85;77.97;98273.91;4891618;29;20056;-53
2023/03/07 08:25:15;;;;;;;0.20;0.20;;;;;;;6.84;78.16;98293.81;4889136;29;20045;-52
2023/03/07 08:27:40;;;;;;;0.17;0.17;;;;;;;6.72;78.51;98285.44;4890779;29;20444;-52
2023/03/07 08:30:07;;;;;;;0.20;0.20;;;;;;;6.77;79.27;98282.38;4893011;29;20056;-51
2023/03/07 08:32:32;;;;;;;0.20;0.20;;;;;;;6.65;79.80;98278.22;4892444;29;20484;-54
2023/03/07 08:34:58;;;;;;;0.20;0.20;;;;;;;6.79;79.07;98299.56;4892761;29;20036;-47
2023/03/07 08:37:23;;;;;;;0.20;0.20;;;;;;;6.44;81.26;98299.66;4893404;29;20056;-51
2023/03/07 08:39:48;;;;;;;0.20;0.20;;;;;;;6.31;84.97;98301.19;4892956;29;20043;-53
2023/03/07 08:42:14;;;;;;;0.20;0.20;;;;;;;6.56;84.11;98309.94;4889342;29;20055;-51
2023/03/07 08:44:39;;;;;;;0.38;0.38;;;;;;;6.35;86.28;98300.03;4933567;29;20522;-50
2023/03/07 08:47:25;;;;;;;0.20;0.20;;;;;;;6.29;85.77;98308.84;4934934;29;20036;-51
2023/03/07 08:49:51;;;;;;;0.20;0.20;;;;;;;6.15;86.25;98311.53;4894863;29;20464;-48
2023/03/07 08:52:16;;;;;;;0.20;0.20;;;;;;;6.18;85.49;98306.19;4893785;29;20047;-46
2023/03/07 08:54:42;;;;;;;0.22;0.22;;;;;;;6.09;85.65;98305.81;4893916;29;20333;-49
2023/03/07 08:57:07;;;;;;;4.03;0.65;;;;;;;5.98;86.64;98318.38;4885983;29;20043;-49
2023/03/07 08:59:33;;;;;;;0.20;0.20;;;;;;;6.01;86.62;98314.19;4892829;29;20036;-49
2023/03/07 09:01:58;;;;;;;0.20;0.20;;;;;;;6.06;86.65;98321.81;4890997;29;20032;-48
2023/03/07 09:04:24;;;;;;;0.20;0.20;;;;;;;6.16;85.61;98315.72;4893365;29;20512;-50
2023/03/07 09:06:49;;;;;;;0.30;0.30;;;;;;;6.43;83.78;98334.78;4894820;29;20052;-48
2023/03/07 09:09:15;;;;;;;0.20;0.20;;;;;;;6.64;81.89;98316.78;4894784;29;20039;-50
2023/03/07 09:11:40;;;;;;;0.20;0.20;;;;;;;6.61;81.61;98320.25;4897741;29;20144;-50
2023/03/07 09:14:06;;;;;;;0.38;0.38;;;;;;;6.20;83.93;98324.50;4894555;29;20586;-50
2023/03/07 09:16:31;;;;;;;0.47;0.28;;;;;;;6.23;83.71;98335.16;4894937;29;20107;-48
2023/03/07 09:18:57;;;;;;;0.30;0.30;;;;;;;6.20;83.28;98313.81;4894211;29;20739;-49
2023/03/07 09:21:22;;;;;;;0.30;0.30;;;;;;;6.22;83.73;98340.91;4894189;29;20151;-48
2023/03/07 09:23:48;;;;;;;0.43;0.43;;;;;;;6.16;83.88;98337.84;4894562;29;20029;-51
2023/03/07 09:26:13;;;;;;;0.55;0.55;;;;;;;6.48;83.91;98348.53;4904022;29;20370;-49
2023/03/07 09:28:39;;;;;;;0.30;0.30;;;;;;;6.72;83.04;98355.72;4916102;29;20039;-48
2023/03/07 09:31:09;;;;;;;0.30;0.30;;;;;;;6.65;81.93;98360.34;4927164;29;20040;-49
2023/03/07 09:33:35;;;;;;;0.30;0.30;;;;;;;6.69;83.03;98353.84;4920336;29;20032;-51
2023/03/07 09:36:05;;;;;;;0.20;0.20;;;;;;;6.60;84.29;98355.38;4915788;29;20076;-51
2023/03/07 09:38:31;;;;;;;0.20;0.20;;;;;;;6.41;86.46;98347.78;4914710;29;20122;-50
2023/03/07 09:41:06;;;;;;;0.20;0.20;;;;;;;6.43;87.09;98361.53;4920429;29;20104;-51
2023/03/07 09:43:47;;;;;;;0.20;0.20;;;;;;;6.72;84.71;98357.63;4917416;29;20040;-47
2023/03/07 09:46:48;;;;;;;0.20;0.20;;;;;;;6.78;84.72;98351.50;4926934;29;20083;-49
2023/03/07 09:49:28;;;;;;;0.20;0.20;;;;;;;7.04;83.15;98343.03;4934601;29;20046;-51
2023/03/07 09:51:58;;;;;;;0.30;0.30;;;;;;;6.80;84.01;98351.13;4929144;29;20479;-49
2023/03/07 09:54:27;;;;;;;0.20;0.20;;;;;;;6.74;84.38;98340.06;4931655;29;20028;-48
2023/03/07 09:56:58;;;;;;;0.10;0.10;;;;;;;6.75;81.67;98348.84;4934135;29;20035;-51
2023/03/07 09:59:38;;;;;;;0.25;0.25;;;;;;;6.73;80.57;98357.28;4934084;29;20127;-48
2023/03/07 10:02:23;;;;;;;;;;;;;;;6.82;79.00;98352.28;4921581;29;20640;-49
2023/03/07 10:04:51;;;;;;;0.20;0.20;;;;;;;6.92;79.08;98353.38;4914249;29;19923;-52
2023/03/07 10:07:22;;;;;;;0.68;0.30;;;;;;;7.11;77.72;98350.25;4922033;29;20069;-50
2023/03/07 10:09:52;;;;;;;0.20;0.20;;;;;;;7.12;77.25;98349.13;4924158;29;20036;-50
2023/03/07 10:12:42;;;;;;;0.20;0.20;;;;;;;7.19;76.43;98373.19;4918174;29;20032;-49
2023/03/07 10:15:34;;;;;;;0.20;0.20;;;;;;;7.25;76.29;98374.31;4914569;29;20024;-51
2023/03/07 10:18:08;;;;;;;0.30;0.30;;;;;;;7.01;75.50;98365.22;4931041;29;20495;-49
2023/03/07 10:20:46;;;;;;;0.20;0.20;;;;;;;6.38;78.96;98368.78;4934410;29;20074;-48
2023/03/07 10:23:50;;;;;;;0.20;0.20;;;;;;;6.89;76.52;98356.84;4933266;29;20035;-53
2023/03/07 10:26:23;;;;;;;0.20;0.20;;;;;;;6.76;76.54;98374.44;4926762;29;20032;-54
2023/03/07 10:28:49;;;;;;;0.20;0.20;;;;;;;7.19;73.76;98363.25;4923238;29;20033;-51
2023/03/07 10:31:24;;;;;;;0.20;0.20;;;;;;;6.92;74.25;98364.84;4925059;29;20542;-53
2023/03/07 10:33:52;;;;;;;0.17;0.17;;;;;;;6.75;73.79;98373.69;4932782;29;20395;-46
2023/03/07 10:36:37;;;;;;;0.20;0.20;;;;;;;6.41;75.42;98369.91;4933295;29;20044;-49
2023/03/07 10:39:14;;;;;;;0.20;0.20;;;;;;;6.49;75.00;98376.78;4928437;29;20062;-45
2023/03/07 10:41:39;;;;;;;0.22;0.22;;;;;;;6.57;75.66;98370.28;4924684;29;20043;-50
2023/03/07 10:44:13;;;;;;;0.20;0.20;;;;;;;6.34;76.79;98377.94;4915224;29;20084;-52
2023/03/07 10:46:38;;;;;;;0.20;0.20;;;;;;;6.17;76.88;98403.53;4916119;29;20087;-45
2023/03/07 10:49:26;;;;;;;0.20;0.20;;;;;;;6.39;78.39;98412.28;4914713;29;20044;-46
2023/03/07 10:52:04;;;;;;;0.20;0.20;;;;;;;6.38;79.93;98408.88;4927675;29;20047;-49
2023/03/07 10:54:34;;;;;;;0.30;0.30;;;;;;;6.76;79.56;98399.28;4933577;29;20042;-48
2023/03/07 10:57:03;;;;;;;0.40;0.40;;;;;;;6.72;81.50;98390.50;4933097;29;20043;-48
2023/03/07 10:59:29;;;;;;;3.20;0.57;;;;;;;6.81;81.27;98398.91;4920668;29;20535;-49
2023/03/07 11:01:57;;;;;;;0.20;0.20;;;;;;;7.14;80.12;98403.75;4916595;29;20035;-47
2023/03/07 11:04:26;;;;;;;0.20;0.20;;;;;;;7.36;80.27;98401.00;4916115;29;20054;-45
2023/03/07 11:06:53;;;;;;;0.45;0.45;;;;;;;7.48;79.04;98403.25;4923200;29;20591;-45
2023/03/07 11:09:29;;;;;;;0.20;0.20;;;;;;;7.85;77.66;98400.78;4927217;29;20043;-51
2023/03/07 11:12:09;;;;;;;0.20;0.20;;;;;;;7.62;79.50;98408.56;4932779;29;20043;-46
2023/03/07 11:14:50;;;;;;;0.30;0.30;;;;;;;7.92;77.26;98414.13;4915716;29;20047;-48
2023/03/07 11:17:46;;;;;;;0.25;0.25;;;;;;;7.85;77.94;98406.91;4920730;29;20039;-51
2023/03/07 11:20:21;;;;;;;0.20;0.20;;;;;;;7.95;76.49;98405.31;4918218;29;20036;-50
2023/03/07 11:22:46;;;;;;;0.20;0.20;;;;;;;8.21;74.87;98407.44;4923013;29;20387;-47
2023/03/07 11:25:14;;;;;;;0.20;0.20;;;;;;;8.02;75.13;98410.63;4921342;29;20129;-51
2023/03/07 11:27:54;;;;;;;0.30;0.30;;;;;;;8.04;75.14;98416.38;4923641;29;20067;-49
2023/03/07 11:30:52;;;;;;;0.73;0.30;;;;;;;7.66;75.21;98414.66;4925210;29;20043;-46
2023/03/07 11:33:42;;;;;;;0.28;0.28;;;;;;;7.69;75.33;98408.53;4920310;29;20036;-53
2023/03/07 11:36:16;;;;;;;0.20;0.20;;;;;;;7.82;74.40;98420.34;4910398;29;20051;-50
2023/03/07 11:38:50;;;;;;;0.22;0.22;;;;;;;7.65;75.16;98415.81;4933084;29;20066;-49
2023/03/07 11:41:19;;;;;;;0.20;0.20;;;;;;;7.91;73.82;98420.66;4931127;29;20123;-46
2023/03/07 11:44:23;;;;;;;0.20;0.20;;;;;;;7.79;73.20;98429.91;4925488;29;20099;-48
2023/03/07 11:47:18;;;;;;;0.20;0.20;;;;;;;7.56;75.16;98416.25;4927155;29;20039;-45
2023/03/07 11:49:55;;;;;;;0.20;0.20;;;;;;;7.60;75.20;98418.91;4933161;29;20451;-53
2023/03/07 11:52:50;;;;;;;0.20;0.20;;;;;;;7.72;72.57;98439.91;4929691;29;20071;-46